sensor_id;sensor_type;location;lat;lon;timestamp;pressure;altitude;pressure_sealevel;temperature;humidity
53908;BME280;40469;47.998;7.794;2023-01-29T00:01:30;100014.19;;;0.04;100.00
53908;BME280;40469;47.998;7.794;2023-01-29T00:03:55;100007.66;;;0.10;100.00
53908;BME280;40469;47.998;7.794;2023-01-29T00:06:21;100010.53;;;-0.02;100.00
53908;BME280;40469;47.998;7.794;2023-01-29T00:08:47;100013.28;;;0.03;100.00
53908;BME280;40469;47.998;7.794;2023-01-29T00:11:13;100000.34;;;0.00;100.00
53908;BME280;40469;47.998;7.794;2023-01-29T00:13:38;100009.31;;;-0.08;100.00
53908;BME280;40469;47.998;7.794;2023-01-29T00:16:03;100017.19;;;-0.05;100.00
53908;BME280;40469;47.998;7.794;2023-01-29T00:18:29;100013.72;;;-0.06;100.00
53908;BME280;40469;47.998;7.794;2023-01-29T00:20:54;100013.59;;;-0.09;100.00
53908;BME280;40469;47.998;7.794;2023-01-29T00:23:20;100022.09;;;-0.10;100.00
53908;BME280;40469;47.998;7.794;2023-01-29T00:25:45;100017.81;;;-0.09;100.00
53908;BME280;40469;47.998;7.794;2023-01-29T00:28:10;100016.00;;;-0.12;100.00
53908;BME280;40469;47.998;7.794;2023-01-29T00:30:36;100012.16;;;-0.20;100.00
53908;BME280;40469;47.998;7.794;2023-01-29T00:33:01;100009.84;;;-0.15;100.00
53908;BME280;40469;47.998;7.794;2023-01-29T00:35:27;100007.34;;;-0.14;100.00
53908;BME280;40469;47.998;7.794;2023-01-29T00:37:53;100014.97;;;-0.15;100.00
53908;BME280;40469;47.998;7.794;2023-01-29T00:40:19;100018.56;;;-0.12;100.00
53908;BME280;40469;47.998;7.794;2023-01-29T00:42:44;100014.06;;;-0.16;100.00
53908;BME280;40469;47.998;7.794;2023-01-29T00:45:28;100020.72;;;-0.20;100.00
53908;BME280;40469;47.998;7.794;2023-01-29T00:47:53;100018.31;;;-0.16;100.00
53908;BME280;40469;47.998;7.794;2023-01-29T00:50:18;100018.41;;;-0.15;100.00
53908;BME280;40469;47.998;7.794;2023-01-29T00:52:43;100008.13;;;-0.15;100.00
53908;BME280;40469;47.998;7.794;2023-01-29T00:55:10;100002.13;;;-0.15;100.00
53908;BME280;40469;47.998;7.794;2023-01-29T00:57:35;100001.09;;;-0.19;100.00
53908;BME280;40469;47.998;7.794;2023-01-29T01:00:02;100005.50;;;-0.16;100.00
53908;BME280;40469;47.998;7.794;2023-01-29T01:02:27;100001.47;;;-0.11;100.00
53908;BME280;40469;47.998;7.794;2023-01-29T01:05:11;99999.84;;;-0.09;100.00
53908;BME280;40469;47.998;7.794;2023-01-29T01:07:42;99998.03;;;-0.12;100.00
53908;BME280;40469;47.998;7.794;2023-01-29T01:10:08;100000.53;;;-0.13;100.00
53908;BME280;40469;47.998;7.794;2023-01-29T01:12:50;100001.72;;;-0.07;100.00
53908;BME280;40469;47.998;7.794;2023-01-29T01:15:16;100001.03;;;-0.03;100.00
53908;BME280;40469;47.998;7.794;2023-01-29T01:17:41;100003.69;;;-0.01;100.00
53908;BME280;40469;47.998;7.794;2023-01-29T01:20:07;100008.91;;;0.01;100.00
53908;BME280;40469;47.998;7.794;2023-01-29T01:22:32;100005.22;;;-0.05;100.00
53908;BME280;40469;47.998;7.794;2023-01-29T01:24:57;100002.41;;;-0.09;100.00
53908;BME280;40469;47.998;7.794;2023-01-29T01:27:22;100006.75;;;-0.08;100.00
53908;BME280;40469;47.998;7.794;2023-01-29T01:29:49;100011.06;;;-0.07;100.00
53908;BME280;40469;47.998;7.794;2023-01-29T01:32:14;100009.25;;;-0.10;100.00
53908;BME280;40469;47.998;7.794;2023-01-29T01:34:40;100009.09;;;-0.13;100.00
53908;BME280;40469;47.998;7.794;2023-01-29T01:37:05;100007.44;;;-0.12;100.00
53908;BME280;40469;47.998;7.794;2023-01-29T01:39:30;100005.56;;;-0.15;100.00
53908;BME280;40469;47.998;7.794;2023-01-29T01:41:56;100005.56;;;-0.15;100.00
53908;BME280;40469;47.998;7.794;2023-01-29T01:47:04;100009.59;;;-0.20;100.00
53908;BME280;40469;47.998;7.794;2023-01-29T01:49:30;100010.53;;;-0.18;100.00
53908;BME280;40469;47.998;7.794;2023-01-29T01:51:55;100012.16;;;-0.20;100.00
53908;BME280;40469;47.998;7.794;2023-01-29T01:54:25;100010.47;;;-0.20;100.00
53908;BME280;40469;47.998;7.794;2023-01-29T01:56:52;100007.91;;;-0.20;100.00
53908;BME280;40469;47.998;7.794;2023-01-29T01:59:20;100006.16;;;-0.21;100.00
53908;BME280;40469;47.998;7.794;2023-01-29T02:01:48;99994.03;;;-0.23;100.00
53908;BME280;40469;47.998;7.794;2023-01-29T02:04:21;99993.16;;;-0.24;100.00
53908;BME280;40469;47.998;7.794;2023-01-29T02:07:06;99992.28;;;-0.24;100.00
53908;BME280;40469;47.998;7.794;2023-01-29T02:09:51;99995.34;;;-0.31;100.00
53908;BME280;40469;47.998;7.794;2023-01-29T02:12:17;99993.41;;;-0.35;100.00
53908;BME280;40469;47.998;7.794;2023-01-29T02:14:43;99996.06;;;-0.34;100.00
53908;BME280;40469;47.998;7.794;2023-01-29T02:17:12;99998.25;;;-0.42;100.00
53908;BME280;40469;47.998;7.794;2023-01-29T02:22:12;100009.81;;;-0.50;100.00
53908;BME280;40469;47.998;7.794;2023-01-29T02:27:11;100015.34;;;-0.59;100.00
53908;BME280;40469;47.998;7.794;2023-01-29T02:32:21;100018.63;;;-0.61;100.00
53908;BME280;40469;47.998;7.794;2023-01-29T02:37:34;100016.56;;;-0.68;100.00
53908;BME280;40469;47.998;7.794;2023-01-29T02:40:35;100018.16;;;-0.70;100.00
53908;BME280;40469;47.998;7.794;2023-01-29T02:42:56;100015.06;;;-0.81;100.00
53908;BME280;40469;47.998;7.794;2023-01-29T02:46:27;100015.44;;;-0.90;100.00
53908;BME280;40469;47.998;7.794;2023-01-29T02:48:21;100016.88;;;-0.95;100.00
53908;BME280;40469;47.998;7.794;2023-01-29T02:56:09;100036.16;;;-1.18;100.00
53908;BME280;40469;47.998;7.794;2023-01-29T02:58:40;100032.69;;;-1.19;100.00
53908;BME280;40469;47.998;7.794;2023-01-29T03:01:07;100030.38;;;-1.14;100.00
53908;BME280;40469;47.998;7.794;2023-01-29T03:03:39;100030.41;;;-1.29;100.00
53908;BME280;40469;47.998;7.794;2023-01-29T03:06:06;100027.81;;;-1.30;100.00
53908;BME280;40469;47.998;7.794;2023-01-29T03:08:42;100039.56;;;-1.34;100.00
53908;BME280;40469;47.998;7.794;2023-01-29T03:11:10;100037.13;;;-1.31;100.00
53908;BME280;40469;47.998;7.794;2023-01-29T03:16:24;100047.06;;;-1.37;100.00
53908;BME280;40469;47.998;7.794;2023-01-29T03:18:52;100044.69;;;-1.49;100.00
53908;BME280;40469;47.998;7.794;2023-01-29T03:21:28;100042.78;;;-1.68;100.00
53908;BME280;40469;47.998;7.794;2023-01-29T03:24:14;100043.78;;;-1.66;100.00
53908;BME280;40469;47.998;7.794;2023-01-29T03:27:01;100046.34;;;-1.66;100.00
53908;BME280;40469;47.998;7.794;2023-01-29T03:29:46;100042.19;;;-1.79;100.00
53908;BME280;40469;47.998;7.794;2023-01-29T03:32:31;100047.75;;;-1.86;100.00
53908;BME280;40469;47.998;7.794;2023-01-29T03:34:57;100049.16;;;-1.91;100.00
53908;BME280;40469;47.998;7.794;2023-01-29T03:37:39;100048.56;;;-1.87;100.00
53908;BME280;40469;47.998;7.794;2023-01-29T03:40:05;100047.56;;;-1.89;100.00
53908;BME280;40469;47.998;7.794;2023-01-29T03:50:53;100047.75;;;-1.86;100.00
53908;BME280;40469;47.998;7.794;2023-01-29T03:55:53;100057.66;;;-1.92;100.00
53908;BME280;40469;47.998;7.794;2023-01-29T03:58:24;100043.25;;;-1.90;100.00
53908;BME280;40469;47.998;7.794;2023-01-29T04:00:59;100041.56;;;-1.89;100.00
53908;BME280;40469;47.998;7.794;2023-01-29T04:03:42;100054.19;;;-1.93;100.00
53908;BME280;40469;47.998;7.794;2023-01-29T04:06:15;100055.59;;;-1.98;100.00
53908;BME280;40469;47.998;7.794;2023-01-29T04:08:47;100055.25;;;-2.04;100.00
53908;BME280;40469;47.998;7.794;2023-01-29T04:11:15;100057.81;;;-2.04;100.00
53908;BME280;40469;47.998;7.794;2023-01-29T04:13:42;100056.03;;;-2.05;100.00
53908;BME280;40469;47.998;7.794;2023-01-29T04:16:10;100060.09;;;-2.08;100.00
53908;BME280;40469;47.998;7.794;2023-01-29T04:18:37;100059.41;;;-2.06;100.00
53908;BME280;40469;47.998;7.794;2023-01-29T04:21:02;100063.72;;;-2.05;100.00
53908;BME280;40469;47.998;7.794;2023-01-29T04:23:31;100062.94;;;-2.04;100.00
53908;BME280;40469;47.998;7.794;2023-01-29T04:26:03;100055.59;;;-1.98;100.00
53908;BME280;40469;47.998;7.794;2023-01-29T04:28:45;100055.78;;;-1.95;100.00
53908;BME280;40469;47.998;7.794;2023-01-29T04:31:15;100058.09;;;-1.99;100.00
53908;BME280;40469;47.998;7.794;2023-01-29T04:33:43;100057.91;;;-2.02;100.00
53908;BME280;40469;47.998;7.794;2023-01-29T04:36:14;100047.91;;;-1.98;100.00
53908;BME280;40469;47.998;7.794;2023-01-29T04:38:56;100049.41;;;-2.01;100.00
53908;BME280;40469;47.998;7.794;2023-01-29T04:43:58;100044.03;;;-1.91;100.00
53908;BME280;40469;47.998;7.794;2023-01-29T04:46:43;100042.44;;;-1.89;100.00
53908;BME280;40469;47.998;7.794;2023-01-29T04:49:21;100048.19;;;-1.93;100.00
53908;BME280;40469;47.998;7.794;2023-01-29T04:51:57;100037.00;;;-1.95;100.00
53908;BME280;40469;47.998;7.794;2023-01-29T04:54:33;100046.78;;;-1.88;100.00
53908;BME280;40469;47.998;7.794;2023-01-29T05:00:11;100032.06;;;-1.92;100.00
53908;BME280;40469;47.998;7.794;2023-01-29T05:02:36;100034.53;;;-1.94;100.00
53908;BME280;40469;47.998;7.794;2023-01-29T05:05:03;100031.88;;;-1.95;100.00
53908;BME280;40469;47.998;7.794;2023-01-29T05:07:30;100027.19;;;-1.87;100.00
53908;BME280;40469;47.998;7.794;2023-01-29T05:09:56;100038.31;;;-1.87;100.00
53908;BME280;40469;47.998;7.794;2023-01-29T05:12:21;100043.34;;;-1.88;100.00
53908;BME280;40469;47.998;7.794;2023-01-29T05:14:49;100048.56;;;-1.87;100.00
53908;BME280;40469;47.998;7.794;2023-01-29T05:17:16;100045.38;;;-1.83;100.00
53908;BME280;40469;47.998;7.794;2023-01-29T05:19:42;100047.94;;;-1.83;100.00
53908;BME280;40469;47.998;7.794;2023-01-29T05:22:08;100044.22;;;-1.88;100.00
53908;BME280;40469;47.998;7.794;2023-01-29T05:24:35;100049.53;;;-1.85;100.00
53908;BME280;40469;47.998;7.794;2023-01-29T05:27:00;100043.78;;;-1.81;100.00
53908;BME280;40469;47.998;7.794;2023-01-29T05:29:44;100040.16;;;-1.84;100.00
53908;BME280;40469;47.998;7.794;2023-01-29T05:32:10;100042.81;;;-1.83;100.00
53908;BME280;40469;47.998;7.794;2023-01-29T05:34:35;100044.41;;;-1.85;100.00
53908;BME280;40469;47.998;7.794;2023-01-29T05:37:01;100045.19;;;-1.86;100.00
53908;BME280;40469;47.998;7.794;2023-01-29T05:39:26;100052.19;;;-1.83;100.00
53908;BME280;40469;47.998;7.794;2023-01-29T05:41:52;100047.28;;;-1.79;100.00
53908;BME280;40469;47.998;7.794;2023-01-29T05:44:17;100048.13;;;-1.80;100.00
53908;BME280;40469;47.998;7.794;2023-01-29T05:46:42;100050.03;;;-1.76;100.00
53908;BME280;40469;47.998;7.794;2023-01-29T05:49:08;100059.41;;;-1.76;100.00
53908;BME280;40469;47.998;7.794;2023-01-29T05:51:33;100058.88;;;-1.70;100.00
53908;BME280;40469;47.998;7.794;2023-01-29T05:53:58;100064.84;;;-1.70;100.00
53908;BME280;40469;47.998;7.794;2023-01-29T05:56:23;100064.06;;;-1.69;100.00
53908;BME280;40469;47.998;7.794;2023-01-29T05:58:55;100075.91;;;-1.71;100.00
53908;BME280;40469;47.998;7.794;2023-01-29T06:01:30;100083.31;;;-1.76;100.00
53908;BME280;40469;47.998;7.794;2023-01-29T06:03:55;100076.41;;;-1.77;100.00
53908;BME280;40469;47.998;7.794;2023-01-29T06:06:20;100072.22;;;-1.76;100.00
53908;BME280;40469;47.998;7.794;2023-01-29T06:08:46;100065.59;;;-1.73;100.00
53908;BME280;40469;47.998;7.794;2023-01-29T06:11:12;100062.06;;;-1.75;100.00
53908;BME280;40469;47.998;7.794;2023-01-29T06:13:37;100049.75;;;-1.80;100.00
53908;BME280;40469;47.998;7.794;2023-01-29T06:16:06;100043.69;;;-1.82;100.00
53908;BME280;40469;47.998;7.794;2023-01-29T06:18:31;100041.75;;;-1.86;100.00
53908;BME280;40469;47.998;7.794;2023-01-29T06:21:00;100033.81;;;-1.91;100.00
53908;BME280;40469;47.998;7.794;2023-01-29T06:23:26;100034.16;;;-2.00;100.00
53908;BME280;40469;47.998;7.794;2023-01-29T06:25:51;100024.00;;;-1.98;100.00
53908;BME280;40469;47.998;7.794;2023-01-29T06:28:16;100031.59;;;-2.00;100.00
53908;BME280;40469;47.998;7.794;2023-01-29T06:30:42;100030.91;;;-1.97;100.00
53908;BME280;40469;47.998;7.794;2023-01-29T06:33:07;100034.97;;;-2.01;100.00
53908;BME280;40469;47.998;7.794;2023-01-29T06:35:32;100043.09;;;-2.08;100.00
53908;BME280;40469;47.998;7.794;2023-01-29T06:37:57;100047.06;;;-2.13;100.00
53908;BME280;40469;47.998;7.794;2023-01-29T06:40:22;100056.13;;;-2.18;100.00
53908;BME280;40469;47.998;7.794;2023-01-29T06:42:48;100068.13;;;-2.17;100.00
53908;BME280;40469;47.998;7.794;2023-01-29T06:45:13;100067.25;;;-2.18;100.00
53908;BME280;40469;47.998;7.794;2023-01-29T06:47:38;100063.91;;;-2.17;100.00
53908;BME280;40469;47.998;7.794;2023-01-29T06:50:03;100069.03;;;-2.17;100.00
53908;BME280;40469;47.998;7.794;2023-01-29T06:52:29;100061.34;;;-2.17;100.00
53908;BME280;40469;47.998;7.794;2023-01-29T06:54:54;100068.94;;;-2.18;100.00
53908;BME280;40469;47.998;7.794;2023-01-29T06:57:20;100071.38;;;-2.20;100.00
53908;BME280;40469;47.998;7.794;2023-01-29T06:59:45;100088.31;;;-2.22;100.00
53908;BME280;40469;47.998;7.794;2023-01-29T07:02:10;100090.41;;;-2.30;100.00
53908;BME280;40469;47.998;7.794;2023-01-29T07:04:35;100085.47;;;-2.41;100.00
53908;BME280;40469;47.998;7.794;2023-01-29T07:07:01;100096.28;;;-2.45;100.00
53908;BME280;40469;47.998;7.794;2023-01-29T07:09:27;100112.63;;;-2.43;100.00
53908;BME280;40469;47.998;7.794;2023-01-29T07:11:52;100114.19;;;-2.45;100.00
53908;BME280;40469;47.998;7.794;2023-01-29T07:14:17;100117.25;;;-2.51;100.00
53908;BME280;40469;47.998;7.794;2023-01-29T07:16:42;100116.75;;;-2.45;100.00
53908;BME280;40469;47.998;7.794;2023-01-29T07:19:08;100123.72;;;-2.43;100.00
53908;BME280;40469;47.998;7.794;2023-01-29T07:21:33;100116.75;;;-2.45;100.00
53908;BME280;40469;47.998;7.794;2023-01-29T07:23:58;100118.72;;;-2.41;100.00
53908;BME280;40469;47.998;7.794;2023-01-29T07:26:23;100120.47;;;-2.40;100.00
53908;BME280;40469;47.998;7.794;2023-01-29T07:28:49;100125.88;;;-2.36;100.00
53908;BME280;40469;47.998;7.794;2023-01-29T07:31:14;100122.25;;;-2.39;100.00
53908;BME280;40469;47.998;7.794;2023-01-29T07:33:41;100131.19;;;-2.33;100.00
53908;BME280;40469;47.998;7.794;2023-01-29T07:36:10;100128.88;;;-2.28;100.00
53908;BME280;40469;47.998;7.794;2023-01-29T07:38:35;100127.47;;;-2.23;100.00
53908;BME280;40469;47.998;7.794;2023-01-29T07:41:00;100123.44;;;-2.19;100.00
53908;BME280;40469;47.998;7.794;2023-01-29T07:43:26;100124.59;;;-2.14;100.00
53908;BME280;40469;47.998;7.794;2023-01-29T07:45:51;100122.22;;;-2.11;100.00
53908;BME280;40469;47.998;7.794;2023-01-29T07:48:16;100120.00;;;-2.05;100.00
53908;BME280;40469;47.998;7.794;2023-01-29T07:50:42;100118.78;;;-1.97;100.00
53908;BME280;40469;47.998;7.794;2023-01-29T07:53:11;100118.34;;;-1.89;100.00
53908;BME280;40469;47.998;7.794;2023-01-29T07:55:36;100116.84;;;-1.86;100.00
53908;BME280;40469;47.998;7.794;2023-01-29T07:58:02;100121.34;;;-1.82;100.00
53908;BME280;40469;47.998;7.794;2023-01-29T08:00:28;100119.25;;;-1.74;100.00
53908;BME280;40469;47.998;7.794;2023-01-29T08:03:00;100126.69;;;-1.64;100.00
53908;BME280;40469;47.998;7.794;2023-01-29T08:05:25;100129.56;;;-1.58;100.00
53908;BME280;40469;47.998;7.794;2023-01-29T08:07:53;100131.69;;;-1.50;100.00
53908;BME280;40469;47.998;7.794;2023-01-29T08:10:18;100142.44;;;-1.41;100.00
53908;BME280;40469;47.998;7.794;2023-01-29T08:12:44;100144.66;;;-1.33;100.00
53908;BME280;40469;47.998;7.794;2023-01-29T08:15:09;100147.47;;;-1.28;100.00
53908;BME280;40469;47.998;7.794;2023-01-29T08:17:34;100151.28;;;-1.21;100.00
53908;BME280;40469;47.998;7.794;2023-01-29T08:19:59;100157.00;;;-1.25;100.00
53908;BME280;40469;47.998;7.794;2023-01-29T08:22:25;100161.88;;;-1.15;100.00
53908;BME280;40469;47.998;7.794;2023-01-29T08:24:50;100164.78;;;-1.09;100.00
53908;BME280;40469;47.998;7.794;2023-01-29T08:27:15;100166.88;;;-1.02;100.00
53908;BME280;40469;47.998;7.794;2023-01-29T08:29:40;100168.91;;;-0.96;100.00
53908;BME280;40469;47.998;7.794;2023-01-29T08:32:08;100169.88;;;-0.94;100.00
53908;BME280;40469;47.998;7.794;2023-01-29T08:34:33;100168.63;;;-0.86;100.00
53908;BME280;40469;47.998;7.794;2023-01-29T08:36:58;100174.63;;;-0.85;100.00
53908;BME280;40469;47.998;7.794;2023-01-29T08:39:23;100174.88;;;-0.81;100.00
53908;BME280;40469;47.998;7.794;2023-01-29T08:41:49;100187.53;;;-0.84;100.00
53908;BME280;40469;47.998;7.794;2023-01-29T08:44:14;100180.88;;;-0.80;100.00
53908;BME280;40469;47.998;7.794;2023-01-29T08:46:39;100187.16;;;-0.75;100.00
53908;BME280;40469;47.998;7.794;2023-01-29T08:49:05;100186.69;;;-0.68;100.00
53908;BME280;40469;47.998;7.794;2023-01-29T08:51:30;100178.22;;;-0.67;100.00
53908;BME280;40469;47.998;7.794;2023-01-29T08:53:55;100188.16;;;-0.57;100.00
53908;BME280;40469;47.998;7.794;2023-01-29T08:56:20;100194.28;;;-0.54;100.00
53908;BME280;40469;47.998;7.794;2023-01-29T08:58:46;100185.94;;;-0.50;100.00
53908;BME280;40469;47.998;7.794;2023-01-29T09:01:11;100181.19;;;-0.43;100.00
53908;BME280;40469;47.998;7.794;2023-01-29T09:03:37;100185.16;;;-0.33;100.00
53908;BME280;40469;47.998;7.794;2023-01-29T09:06:07;100183.91;;;-0.25;100.00
53908;BME280;40469;47.998;7.794;2023-01-29T09:08:33;100193.69;;;-0.17;100.00
53908;BME280;40469;47.998;7.794;2023-01-29T09:10:58;100197.22;;;-0.15;100.00
53908;BME280;40469;47.998;7.794;2023-01-29T09:13:24;100200.91;;;-0.10;100.00
53908;BME280;40469;47.998;7.794;2023-01-29T09:15:49;100205.88;;;-0.13;100.00
53908;BME280;40469;47.998;7.794;2023-01-29T09:18:14;100203.22;;;-0.15;100.00
53908;BME280;40469;47.998;7.794;2023-01-29T09:20:40;100204.00;;;-0.16;100.00
53908;BME280;40469;47.998;7.794;2023-01-29T09:23:06;100198.94;;;-0.14;100.00
53908;BME280;40469;47.998;7.794;2023-01-29T09:25:32;100206.13;;;-0.09;100.00
53908;BME280;40469;47.998;7.794;2023-01-29T09:27:57;100204.34;;;-0.10;100.00
53908;BME280;40469;47.998;7.794;2023-01-29T09:30:23;100202.50;;;0.04;100.00
53908;BME280;40469;47.998;7.794;2023-01-29T09:32:48;100207.81;;;0.07;100.00
53908;BME280;40469;47.998;7.794;2023-01-29T09:35:13;100202.19;;;0.14;100.00
53908;BME280;40469;47.998;7.794;2023-01-29T09:37:38;100202.00;;;0.11;100.00
53908;BME280;40469;47.998;7.794;2023-01-29T09:40:04;100196.97;;;0.13;100.00
53908;BME280;40469;47.998;7.794;2023-01-29T09:42:36;100196.00;;;0.11;100.00
53908;BME280;40469;47.998;7.794;2023-01-29T09:45:13;100196.13;;;0.14;100.00
53908;BME280;40469;47.998;7.794;2023-01-29T09:47:42;100192.88;;;0.16;100.00
53908;BME280;40469;47.998;7.794;2023-01-29T09:52:37;100188.34;;;0.12;100.00
53908;BME280;40469;47.998;7.794;2023-01-29T09:57:46;100183.72;;;0.22;100.00
53908;BME280;40469;47.998;7.794;2023-01-29T10:00:23;100184.00;;;0.28;100.00
53908;BME280;40469;47.998;7.794;2023-01-29T10:02:54;100182.88;;;0.39;100.00
53908;BME280;40469;47.998;7.794;2023-01-29T10:10:36;100183.19;;;0.80;100.00
53908;BME280;40469;47.998;7.794;2023-01-29T10:15:40;100176.78;;;1.07;100.00
53908;BME280;40469;47.998;7.794;2023-01-29T10:20:46;100174.41;;;1.30;100.00
53908;BME280;40469;47.998;7.794;2023-01-29T10:23:20;100166.72;;;1.49;100.00
53908;BME280;40469;47.998;7.794;2023-01-29T10:25:45;100150.66;;;1.73;100.00
53908;BME280;40469;47.998;7.794;2023-01-29T10:28:26;100137.22;;;2.19;100.00
53908;BME280;40469;47.998;7.794;2023-01-29T10:31:01;100130.22;;;2.80;100.00
53908;BME280;40469;47.998;7.794;2023-01-29T10:33:50;100131.63;;;3.15;100.00
53908;BME280;40469;47.998;7.794;2023-01-29T10:36:17;100118.03;;;3.19;100.00
53908;BME280;40469;47.998;7.794;2023-01-29T10:38:45;100104.16;;;3.40;100.00
53908;BME280;40469;47.998;7.794;2023-01-29T10:41:55;100107.59;;;3.16;100.00
53908;BME280;40469;47.998;7.794;2023-01-29T10:51:56;100075.44;;;3.31;100.00
53908;BME280;40469;47.998;7.794;2023-01-29T11:00:08;100079.53;;;3.26;100.00
53908;BME280;40469;47.998;7.794;2023-01-29T11:02:42;100078.28;;;3.38;100.00
53908;BME280;40469;47.998;7.794;2023-01-29T11:05:29;100084.88;;;3.30;100.00
53908;BME280;40469;47.998;7.794;2023-01-29T11:08:00;100086.00;;;3.14;100.00
53908;BME280;40469;47.998;7.794;2023-01-29T11:10:26;100096.09;;;2.64;100.00
53908;BME280;40469;47.998;7.794;2023-01-29T11:12:53;100087.84;;;2.52;100.00
53908;BME280;40469;47.998;7.794;2023-01-29T11:15:23;100092.78;;;2.46;100.00
53908;BME280;40469;47.998;7.794;2023-01-29T11:20:45;100083.59;;;2.74;100.00
53908;BME280;40469;47.998;7.794;2023-01-29T11:23:27;100078.19;;;2.90;100.00
53908;BME280;40469;47.998;7.794;2023-01-29T11:25:53;100078.47;;;2.98;100.00
53908;BME280;40469;47.998;7.794;2023-01-29T11:28:35;100076.69;;;3.18;100.00
53908;BME280;40469;47.998;7.794;2023-01-29T11:31:00;100078.56;;;3.70;100.00
53908;BME280;40469;47.998;7.794;2023-01-29T11:33:26;100070.88;;;4.22;100.00
53908;BME280;40469;47.998;7.794;2023-01-29T11:35:52;100075.97;;;4.18;100.00
53908;BME280;40469;47.998;7.794;2023-01-29T11:38:24;100068.34;;;4.23;100.00
53908;BME280;40469;47.998;7.794;2023-01-29T11:40:50;100062.94;;;4.15;100.00
53908;BME280;40469;47.998;7.794;2023-01-29T11:43:19;100058.34;;;4.34;100.00
53908;BME280;40469;47.998;7.794;2023-01-29T11:45:46;100068.28;;;4.47;100.00
53908;BME280;40469;47.998;7.794;2023-01-29T11:48:13;100060.94;;;4.34;100.00
53908;BME280;40469;47.998;7.794;2023-01-29T11:50:39;100060.22;;;4.12;100.00
53908;BME280;40469;47.998;7.794;2023-01-29T11:53:05;100060.19;;;3.85;100.00
53908;BME280;40469;47.998;7.794;2023-01-29T11:55:31;100061.06;;;3.61;100.00
53908;BME280;40469;47.998;7.794;2023-01-29T11:58:04;100057.16;;;3.98;100.00
53908;BME280;40469;47.998;7.794;2023-01-29T12:00:31;100044.06;;;3.68;100.00
53908;BME280;40469;47.998;7.794;2023-01-29T12:03:05;100035.91;;;3.56;100.00
53908;BME280;40469;47.998;7.794;2023-01-29T12:05:31;100042.00;;;3.58;100.00
53908;BME280;40469;47.998;7.794;2023-01-29T12:07:57;100040.22;;;3.33;100.00
53908;BME280;40469;47.998;7.794;2023-01-29T12:15:35;100050.53;;;3.81;100.00
53908;BME280;40469;47.998;7.794;2023-01-29T12:18:11;100039.34;;;3.56;100.00
53908;BME280;40469;47.998;7.794;2023-01-29T12:20:39;100039.03;;;3.47;100.00
53908;BME280;40469;47.998;7.794;2023-01-29T12:38:55;100016.50;;;4.46;100.00
53908;BME280;40469;47.998;7.794;2023-01-29T12:44:11;100011.09;;;4.38;100.00
53908;BME280;40469;47.998;7.794;2023-01-29T12:46:39;100010.31;;;4.41;100.00
53908;BME280;40469;47.998;7.794;2023-01-29T12:49:10;100001.06;;;4.76;100.00
53908;BME280;40469;47.998;7.794;2023-01-29T12:51:38;99994.31;;;4.52;100.00
53908;BME280;40469;47.998;7.794;2023-01-29T12:54:08;99992.84;;;4.89;100.00
53908;BME280;40469;47.998;7.794;2023-01-29T12:56:44;99990.63;;;5.02;100.00
53908;BME280;40469;47.998;7.794;2023-01-29T12:59:16;99988.94;;;5.04;100.00
53908;BME280;40469;47.998;7.794;2023-01-29T13:02:05;99983.84;;;4.77;100.00
53908;BME280;40469;47.998;7.794;2023-01-29T13:04:36;99985.09;;;4.33;100.00
53908;BME280;40469;47.998;7.794;2023-01-29T13:07:13;99981.44;;;4.54;100.00
53908;BME280;40469;47.998;7.794;2023-01-29T13:09:40;99973.25;;;4.40;100.00
53908;BME280;40469;47.998;7.794;2023-01-29T13:12:11;99971.81;;;4.50;100.00
53908;BME280;40469;47.998;7.794;2023-01-29T13:14:46;99972.16;;;4.61;100.00
53908;BME280;40469;47.998;7.794;2023-01-29T13:17:23;99968.03;;;4.67;100.00
53908;BME280;40469;47.998;7.794;2023-01-29T13:19:51;99958.97;;;4.24;100.00
53908;BME280;40469;47.998;7.794;2023-01-29T13:22:28;99966.19;;;3.82;100.00
53908;BME280;40469;47.998;7.794;2023-01-29T13:24:56;99963.66;;;3.57;100.00
53908;BME280;40469;47.998;7.794;2023-01-29T13:27:25;99954.38;;;3.88;100.00
53908;BME280;40469;47.998;7.794;2023-01-29T13:29:51;99950.56;;;3.27;100.00
53908;BME280;40469;47.998;7.794;2023-01-29T13:32:19;99942.63;;;3.22;100.00
53908;BME280;40469;47.998;7.794;2023-01-29T13:34:45;99940.66;;;2.67;100.00
53908;BME280;40469;47.998;7.794;2023-01-29T13:37:16;99938.81;;;3.11;100.00
53908;BME280;40469;47.998;7.794;2023-01-29T13:39:46;99928.63;;;3.14;100.00
53908;BME280;40469;47.998;7.794;2023-01-29T13:42:19;99929.13;;;3.30;100.00
53908;BME280;40469;47.998;7.794;2023-01-29T13:44:49;99926.47;;;3.52;100.00
53908;BME280;40469;47.998;7.794;2023-01-29T13:47:25;99929.50;;;3.40;100.00
53908;BME280;40469;47.998;7.794;2023-01-29T13:54:58;99916.50;;;3.37;100.00
53908;BME280;40469;47.998;7.794;2023-01-29T14:00:53;99907.81;;;3.61;100.00
53908;BME280;40469;47.998;7.794;2023-01-29T14:08:00;99915.72;;;3.16;100.00
53908;BME280;40469;47.998;7.794;2023-01-29T14:10:27;99918.47;;;2.96;100.00
53908;BME280;40469;47.998;7.794;2023-01-29T14:12:54;99921.63;;;3.12;100.00
53908;BME280;40469;47.998;7.794;2023-01-29T14:15:24;99924.69;;;3.01;100.00
53908;BME280;40469;47.998;7.794;2023-01-29T14:17:53;99924.50;;;2.95;100.00
53908;BME280;40469;47.998;7.794;2023-01-29T14:20:20;99923.75;;;2.75;100.00
53908;BME280;40469;47.998;7.794;2023-01-29T14:22:52;99936.66;;;2.53;100.00
53908;BME280;40469;47.998;7.794;2023-01-29T14:25:18;99932.66;;;2.83;100.00
53908;BME280;40469;47.998;7.794;2023-01-29T14:27:47;99925.22;;;2.93;100.00
53908;BME280;40469;47.998;7.794;2023-01-29T14:30:15;99928.50;;;2.64;100.00
53908;BME280;40469;47.998;7.794;2023-01-29T14:32:41;99919.81;;;2.85;100.00
53908;BME280;40469;47.998;7.794;2023-01-29T14:35:21;99932.88;;;2.90;100.00
53908;BME280;40469;47.998;7.794;2023-01-29T14:37:47;99936.50;;;2.95;100.00
53908;BME280;40469;47.998;7.794;2023-01-29T14:45:24;99937.34;;;2.71;100.00